Aurora, Oregon
Current Conditions -  °F | °C
As of 12:53 AM on Monday 20 Oct 2014 (Local Time) from KUAO Reporting Station
Overcast Overcast  
Wind Chill: 61°   Ceiling: 6500
Heat Index: 61°   Visibility: 10mi
Dew Point: 56°   Wind: 3mph
Humidity: 83%   Direction: 150°SSE
Pressure: 29.74"   Gusts: NA
Location:  45.23°N, 122.76°W
Report Text: KUAO 200753Z AUTO 15003KT 10SM OVC065 16/13 A2974 RMK AO2 SLP071 T01610133 402280117
Loading
Personal Weather Stations






























Interactive Weather Map New forecast layout! Learn more

10-Day Weather Forecast

Advertisements
Track Severe Weather on mobile